createdAt,value
2018-07-03T00:01:13.244Z,2.73
2018-07-03T00:05:17.125Z,3.40
2018-07-03T00:09:20.968Z,2.40
2018-07-03T00:13:24.818Z,3.83
2018-07-03T00:17:28.668Z,2.67
2018-07-03T00:21:32.576Z,3.90
2018-07-03T00:25:36.422Z,3.37
2018-07-03T00:29:40.267Z,3.67
2018-07-03T00:33:44.127Z,4.07
2018-07-03T00:37:47.976Z,4.33
2018-07-03T00:41:51.820Z,5.93
2018-07-03T00:45:55.687Z,5.30
2018-07-03T00:49:59.623Z,5.53
2018-07-03T00:54:03.255Z,5.03
2018-07-03T00:58:06.967Z,6.10
2018-07-03T01:02:10.835Z,4.90
2018-07-03T01:06:14.704Z,6.80
2018-07-03T01:10:18.644Z,4.83
2018-07-03T01:14:22.470Z,5.40
2018-07-03T01:18:26.380Z,6.33
2018-07-03T01:22:30.229Z,5.60
2018-07-03T01:26:34.160Z,7.80
2018-07-03T01:30:37.998Z,8.67
2018-07-03T01:34:41.841Z,5.73
2018-07-03T01:38:45.680Z,6.10
2018-07-03T01:42:49.655Z,5.03
2018-07-03T01:46:53.519Z,6.97
2018-07-03T01:50:57.477Z,6.00
2018-07-03T01:55:01.322Z,6.03
2018-07-03T01:59:05.172Z,6.23
2018-07-03T02:03:09.021Z,5.70
2018-07-03T02:07:12.860Z,6.13
2018-07-03T02:11:16.704Z,4.80
2018-07-03T02:15:20.888Z,4.90
2018-07-03T02:19:24.798Z,5.23
2018-07-03T02:23:29.013Z,5.97
2018-07-03T02:27:32.845Z,6.30
2018-07-03T02:31:36.700Z,4.83
2018-07-03T02:35:40.556Z,4.77
2018-07-03T02:39:44.383Z,5.47
2018-07-03T02:43:48.327Z,7.43
2018-07-03T02:47:52.211Z,11.90
2018-07-03T02:51:56.215Z,9.90
2018-07-03T02:56:00.113Z,32.53
2018-07-03T03:00:04.635Z,17.50
2018-07-03T03:04:08.491Z,44.60
2018-07-03T03:08:12.392Z,25.57
2018-07-03T03:12:16.223Z,39.17
2018-07-03T03:16:20.076Z,23.70
2018-07-03T03:20:23.988Z,24.53
2018-07-03T03:24:27.846Z,18.20
2018-07-03T03:28:32.603Z,22.63
2018-07-03T03:32:36.472Z,24.03
2018-07-03T03:36:40.188Z,22.77
2018-07-03T03:40:43.960Z,20.90
2018-07-03T03:44:47.831Z,31.13
2018-07-03T03:48:51.959Z,28.73
2018-07-03T03:52:56.103Z,25.80
2018-07-03T03:56:59.964Z,20.33
2018-07-03T04:01:03.831Z,37.77
2018-07-03T04:05:07.944Z,22.13
2018-07-03T04:09:12.044Z,24.87
2018-07-03T04:13:15.899Z,21.63
2018-07-03T04:17:19.847Z,41.37
2018-07-03T04:21:23.699Z,22.97
2018-07-03T04:25:27.559Z,27.00
2018-07-03T04:29:31.412Z,25.40
2018-07-03T04:33:35.279Z,50.73
2018-07-03T04:37:39.159Z,32.90
2018-07-03T04:41:43.044Z,33.83
2018-07-03T04:45:46.912Z,35.93
2018-07-03T04:49:50.787Z,24.53
2018-07-03T04:53:54.652Z,21.40
2018-07-03T04:57:58.768Z,23.83
2018-07-03T05:02:02.422Z,26.90
2018-07-03T05:06:06.171Z,21.13
2018-07-03T05:10:10.473Z,21.07
2018-07-03T05:14:14.296Z,20.50
2018-07-03T05:18:18.216Z,21.57
2018-07-03T05:22:22.084Z,20.10
2018-07-03T05:26:25.958Z,18.77
2018-07-03T05:30:29.825Z,17.00
2018-07-03T05:34:33.693Z,21.43
2018-07-03T05:38:37.555Z,17.43
2018-07-03T05:42:41.437Z,19.53
2018-07-03T05:46:45.305Z,19.70
2018-07-03T05:50:49.171Z,18.13
2018-07-03T05:54:53.049Z,17.13
2018-07-03T05:58:56.958Z,16.80
2018-07-03T06:03:00.828Z,16.83
2018-07-03T06:07:04.880Z,16.60
2018-07-03T06:11:08.748Z,14.17
2018-07-03T06:15:12.625Z,16.37
2018-07-03T06:19:16.552Z,12.40
2018-07-03T06:23:20.708Z,14.03
2018-07-03T06:27:24.380Z,11.70
2018-07-03T06:31:28.128Z,10.77
2018-07-03T06:35:32.060Z,10.00
2018-07-03T06:39:35.936Z,6.67
2018-07-03T06:43:39.799Z,7.80
2018-07-03T06:47:43.660Z,6.00
2018-07-03T06:51:47.346Z,6.00
2018-07-03T06:55:51.069Z,6.13
2018-07-03T06:59:54.731Z,4.40
2018-07-03T07:03:58.483Z,4.97
2018-07-03T07:08:02.341Z,4.80
2018-07-03T07:12:06.235Z,5.00
2018-07-03T07:16:10.096Z,4.77
2018-07-03T07:20:14.044Z,3.87
2018-07-03T07:24:17.936Z,4.03
2018-07-03T07:28:21.747Z,3.50
2018-07-03T07:32:25.487Z,5.60
2018-07-03T07:36:29.356Z,3.57
2018-07-03T07:40:33.235Z,5.33
2018-07-03T07:44:37.072Z,2.60
2018-07-03T07:48:40.956Z,4.87
2018-07-03T07:52:44.620Z,3.20
2018-07-03T07:56:48.363Z,1.80
2018-07-03T08:00:52.249Z,2.40
2018-07-03T08:04:56.116Z,3.33
2018-07-03T08:09:00.028Z,1.73
2018-07-03T08:13:03.667Z,3.27
2018-07-03T08:17:07.429Z,2.93
2018-07-03T08:21:11.328Z,2.47
2018-07-03T08:25:15.180Z,4.57
2018-07-03T09:10:27.400Z,5.07
2018-07-03T09:14:31.236Z,9.53
2018-07-03T09:18:34.931Z,1.20
2018-07-03T09:22:38.720Z,2.90
2018-07-03T09:26:42.596Z,3.73
2018-07-03T09:30:46.493Z,2.40
2018-07-03T09:34:50.344Z,3.43
2018-07-03T09:38:54.219Z,1.30
2018-07-03T09:47:07.948Z,5.10
2018-07-03T09:51:11.810Z,3.97
2018-07-03T09:55:15.660Z,4.80
2018-07-03T09:59:19.533Z,2.50
2018-07-03T10:03:23.851Z,1.67
2018-07-03T10:07:27.730Z,2.10
2018-07-03T10:11:31.603Z,3.07
2018-07-03T10:15:35.459Z,2.00
2018-07-03T10:19:40.629Z,0.80
2018-07-03T10:23:44.471Z,1.80
2018-07-03T10:27:48.364Z,1.70
2018-07-03T10:31:52.234Z,0.77
2018-07-03T10:35:56.191Z,2.53
2018-07-03T10:40:00.030Z,1.20
2018-07-03T10:44:04.172Z,1.13
2018-07-03T10:48:08.044Z,0.90
2018-07-03T10:52:11.974Z,2.10
2018-07-03T10:56:15.831Z,0.80
2018-07-03T11:00:19.724Z,1.27
2018-07-03T11:04:23.587Z,1.60
2018-07-03T11:08:27.760Z,1.07
2018-07-03T11:12:31.628Z,1.50
2018-07-03T11:16:35.636Z,0.80
2018-07-03T11:20:39.524Z,1.60
2018-07-03T11:24:43.412Z,1.50
2018-07-03T11:28:47.270Z,0.90
2018-07-03T11:32:51.137Z,2.13
2018-07-03T11:36:55.012Z,2.00
2018-07-03T11:40:58.869Z,0.80
2018-07-03T11:45:02.741Z,1.13
2018-07-03T11:49:06.684Z,1.77
2018-07-03T11:53:10.560Z,1.30
2018-07-03T11:57:14.442Z,1.63
2018-07-03T12:01:18.530Z,0.93
2018-07-03T12:05:22.428Z,2.00
2018-07-03T12:09:26.378Z,0.97
2018-07-03T12:13:30.248Z,1.23
2018-07-03T12:17:34.107Z,2.07
2018-07-03T12:21:37.980Z,6.80
2018-07-03T12:29:52.092Z,2.20
2018-07-03T12:33:55.955Z,2.93
2018-07-03T12:37:59.808Z,1.70
2018-07-03T12:42:03.661Z,5.33
2018-07-03T12:50:42.797Z,2.20
2018-07-03T12:54:46.672Z,1.83
2018-07-03T12:58:50.601Z,1.53
2018-07-03T13:02:54.589Z,4.67
2018-07-03T13:06:58.453Z,4.50
2018-07-03T13:11:02.653Z,3.30
2018-07-03T13:15:06.621Z,4.10
2018-07-03T13:19:10.485Z,3.80
2018-07-03T13:23:14.360Z,2.37
2018-07-03T13:27:18.313Z,3.30
2018-07-03T13:31:22.256Z,3.33
2018-07-03T13:35:26.116Z,2.20
2018-07-03T13:39:29.979Z,7.90
2018-07-03T13:43:33.833Z,5.20
2018-07-03T13:47:37.692Z,4.20
2018-07-03T13:51:41.557Z,3.53
2018-07-03T13:55:45.203Z,5.23
2018-07-03T13:59:48.955Z,2.73
2018-07-03T14:03:52.808Z,2.70
2018-07-03T14:07:56.680Z,3.00
2018-07-03T14:12:00.581Z,7.07
2018-07-03T14:16:04.466Z,4.00
2018-07-03T14:20:08.396Z,3.10
2018-07-03T14:24:12.247Z,2.93
2018-07-03T14:28:16.123Z,4.47
2018-07-03T14:32:20.016Z,3.33
2018-07-03T14:36:23.975Z,3.47
2018-07-03T14:40:27.783Z,6.60
2018-07-03T14:44:31.679Z,3.80
2018-07-03T14:48:35.545Z,8.13
2018-07-03T14:52:39.396Z,3.30
2018-07-03T14:56:43.252Z,3.20
2018-07-03T15:00:47.112Z,3.30
2018-07-03T15:04:50.959Z,4.00
2018-07-03T15:08:54.818Z,6.53
2018-07-03T15:12:58.668Z,2.70
2018-07-03T15:17:02.572Z,6.10
2018-07-03T15:21:06.560Z,3.43
2018-07-03T15:29:19.731Z,5.83
2018-07-03T15:33:23.576Z,3.00
2018-07-03T15:37:27.316Z,5.00
2018-07-03T15:41:31.052Z,6.30
2018-07-03T15:45:34.932Z,4.93
2018-07-03T15:49:38.855Z,3.17
2018-07-03T15:53:42.724Z,3.60
2018-07-03T15:57:46.696Z,6.10
2018-07-03T16:01:50.562Z,3.27
2018-07-03T16:06:04.429Z,2.97
2018-07-03T16:10:08.280Z,2.93
2018-07-03T16:14:12.676Z,4.80
2018-07-03T16:18:16.592Z,3.20
2018-07-03T16:22:20.449Z,6.73
2018-07-03T16:26:24.328Z,3.03
2018-07-03T16:30:28.192Z,4.03
2018-07-03T16:34:32.040Z,3.63
2018-07-03T16:38:35.899Z,3.00
2018-07-03T16:42:39.780Z,3.90
2018-07-03T16:46:43.656Z,6.40
2018-07-03T16:50:47.513Z,2.90
2018-07-03T16:54:51.384Z,3.50
2018-07-03T16:58:55.240Z,6.60
2018-07-03T17:02:59.084Z,3.90
2018-07-03T17:07:03.009Z,5.20
2018-07-03T17:11:06.887Z,5.93
2018-07-03T17:15:10.768Z,5.43
2018-07-03T17:19:20.076Z,3.63
2018-07-03T17:23:23.920Z,3.37
2018-07-03T17:27:27.785Z,4.67
2018-07-03T17:31:32.177Z,4.17
2018-07-03T17:35:36.344Z,3.60
2018-07-03T17:39:51.662Z,4.73
2018-07-03T17:44:08.453Z,3.83
2018-07-03T17:48:13.328Z,4.17
2018-07-03T17:52:16.989Z,5.23
2018-07-03T17:56:20.719Z,5.70
2018-07-03T18:00:24.584Z,7.03
2018-07-03T18:04:28.427Z,3.33
2018-07-03T18:08:32.292Z,5.00
2018-07-03T18:12:36.391Z,5.20
2018-07-03T18:16:40.223Z,4.87
2018-07-03T18:20:44.152Z,3.77
2018-07-03T18:24:47.800Z,4.20
2018-07-03T18:28:51.647Z,2.93
2018-07-03T18:32:55.535Z,3.73
2018-07-03T18:36:59.448Z,6.20
2018-07-03T18:41:03.380Z,8.60
2018-07-03T18:45:07.132Z,4.87
2018-07-03T18:49:10.987Z,4.27
2018-07-03T18:53:14.913Z,3.90
2018-07-03T18:57:18.780Z,3.63
2018-07-03T19:01:22.648Z,6.50
2018-07-03T19:05:26.577Z,5.47
2018-07-03T19:09:30.540Z,5.20
2018-07-03T19:13:34.404Z,6.17
2018-07-03T19:17:38.261Z,5.17
2018-07-03T19:21:42.118Z,5.43
2018-07-03T19:25:45.980Z,4.90
2018-07-03T19:29:49.828Z,3.87
2018-07-03T19:33:53.746Z,2.80
2018-07-03T19:37:57.613Z,4.97
2018-07-03T19:42:01.537Z,3.50
2018-07-03T19:46:05.812Z,4.93
2018-07-03T19:50:09.692Z,4.10
2018-07-03T19:54:13.580Z,8.73
2018-07-03T19:58:18.048Z,6.00
2018-07-03T20:02:21.937Z,5.07
2018-07-03T20:06:26.668Z,4.37
2018-07-03T20:10:30.660Z,6.27
2018-07-03T20:14:34.515Z,5.47
2018-07-03T20:18:38.440Z,6.80
2018-07-03T20:22:42.396Z,4.13
2018-07-03T20:26:46.236Z,5.60
2018-07-03T20:30:50.202Z,4.93
2018-07-03T20:34:54.036Z,3.63
2018-07-03T20:38:57.920Z,4.60
2018-07-03T20:43:01.781Z,5.03
2018-07-03T20:47:05.644Z,7.17
2018-07-03T20:51:09.481Z,6.90
2018-07-03T20:55:13.664Z,5.90
2018-07-03T20:59:17.525Z,5.60
2018-07-03T21:03:21.408Z,5.83
2018-07-03T21:07:25.361Z,8.73
2018-07-03T21:11:29.246Z,12.17
2018-07-03T21:15:33.070Z,5.57
2018-07-03T21:19:36.976Z,6.30
2018-07-03T21:23:40.940Z,5.00
2018-07-03T21:27:44.907Z,7.90
2018-07-03T21:31:48.800Z,4.70
2018-07-03T21:35:52.791Z,8.07
2018-07-03T21:39:56.636Z,10.37
2018-07-03T21:44:00.499Z,9.30
2018-07-03T21:48:04.390Z,12.30
2018-07-03T21:52:08.237Z,6.37
2018-07-03T21:56:11.856Z,7.83
2018-07-03T22:00:15.595Z,7.73
2018-07-03T22:04:19.471Z,6.40
2018-07-03T22:08:23.335Z,6.80
2018-07-03T22:12:27.263Z,5.77
2018-07-03T22:16:31.103Z,8.87
2018-07-03T22:20:34.964Z,7.10
2018-07-03T22:24:38.815Z,6.67
2018-07-03T22:28:42.707Z,10.47
2018-07-03T22:32:46.647Z,6.83
2018-07-03T22:36:50.531Z,9.80
2018-07-03T22:40:54.539Z,8.90
2018-07-03T22:44:58.380Z,7.77
2018-07-03T22:49:02.249Z,8.97
2018-07-03T22:53:06.108Z,8.60
2018-07-03T22:57:09.952Z,8.23
2018-07-03T23:01:13.804Z,7.37
2018-07-03T23:05:17.776Z,6.33
2018-07-03T23:09:21.603Z,7.80
2018-07-03T23:13:25.476Z,6.53
2018-07-03T23:17:29.356Z,7.20
2018-07-03T23:21:33.200Z,8.00
2018-07-03T23:25:37.071Z,12.97
2018-07-03T23:29:40.703Z,6.83
2018-07-03T23:33:44.457Z,7.40
2018-07-03T23:37:48.325Z,6.13
2018-07-03T23:41:52.219Z,5.47
2018-07-03T23:46:03.028Z,8.43
2018-07-03T23:50:18.148Z,5.73
2018-07-03T23:54:39.564Z,5.17
2018-07-03T23:59:00.784Z,5.60
